sensor_id;sensor_type;location;lat;lon;timestamp;temperature;humidity
9410;DHT22;4744;52.576;13.568;2022-10-15T00:02:12;13.10;1.00
9410;DHT22;4744;52.576;13.568;2022-10-15T00:04:38;13.10;1.00
9410;DHT22;4744;52.576;13.568;2022-10-15T00:07:06;13.10;1.00
9410;DHT22;4744;52.576;13.568;2022-10-15T00:09:33;13.10;1.00
9410;DHT22;4744;52.576;13.568;2022-10-15T00:12:00;13.20;1.00
9410;DHT22;4744;52.576;13.568;2022-10-15T00:14:27;13.20;1.00
9410;DHT22;4744;52.576;13.568;2022-10-15T00:16:54;13.30;1.00
9410;DHT22;4744;52.576;13.568;2022-10-15T00:19:21;13.20;1.00
9410;DHT22;4744;52.576;13.568;2022-10-15T00:21:48;13.20;1.00
9410;DHT22;4744;52.576;13.568;2022-10-15T00:24:18;13.30;1.00
9410;DHT22;4744;52.576;13.568;2022-10-15T00:26:45;13.30;1.00
9410;DHT22;4744;52.576;13.568;2022-10-15T00:29:11;13.20;1.00
9410;DHT22;4744;52.576;13.568;2022-10-15T00:31:38;13.20;1.00
9410;DHT22;4744;52.576;13.568;2022-10-15T00:34:05;13.20;1.00
9410;DHT22;4744;52.576;13.568;2022-10-15T00:36:33;13.10;1.00
9410;DHT22;4744;52.576;13.568;2022-10-15T00:39:02;13.10;1.00
9410;DHT22;4744;52.576;13.568;2022-10-15T00:41:32;13.00;1.00
9410;DHT22;4744;52.576;13.568;2022-10-15T00:44:00;13.00;1.00
9410;DHT22;4744;52.576;13.568;2022-10-15T00:46:30;13.00;1.00
9410;DHT22;4744;52.576;13.568;2022-10-15T00:48:59;13.00;1.00
9410;DHT22;4744;52.576;13.568;2022-10-15T00:51:30;13.00;1.00
9410;DHT22;4744;52.576;13.568;2022-10-15T00:53:59;12.90;1.00
9410;DHT22;4744;52.576;13.568;2022-10-15T00:56:29;12.90;1.00
9410;DHT22;4744;52.576;13.568;2022-10-15T00:58:57;12.80;1.00
9410;DHT22;4744;52.576;13.568;2022-10-15T01:01:24;12.80;1.00
9410;DHT22;4744;52.576;13.568;2022-10-15T01:03:52;12.80;1.00
9410;DHT22;4744;52.576;13.568;2022-10-15T01:06:19;12.80;1.00
9410;DHT22;4744;52.576;13.568;2022-10-15T01:08:45;12.90;1.00
9410;DHT22;4744;52.576;13.568;2022-10-15T01:11:25;12.80;1.00
9410;DHT22;4744;52.576;13.568;2022-10-15T01:14:01;12.80;1.00
9410;DHT22;4744;52.576;13.568;2022-10-15T01:16:38;12.80;1.00
9410;DHT22;4744;52.576;13.568;2022-10-15T01:19:19;12.80;1.00
9410;DHT22;4744;52.576;13.568;2022-10-15T01:21:53;12.80;1.00
9410;DHT22;4744;52.576;13.568;2022-10-15T01:27:30;12.80;1.00
9410;DHT22;4744;52.576;13.568;2022-10-15T01:30:21;12.80;1.00
9410;DHT22;4744;52.576;13.568;2022-10-15T01:33:03;12.80;1.00
9410;DHT22;4744;52.576;13.568;2022-10-15T01:35:44;12.80;1.00
9410;DHT22;4744;52.576;13.568;2022-10-15T01:38:21;12.80;1.00
9410;DHT22;4744;52.576;13.568;2022-10-15T01:40:52;12.80;1.00
9410;DHT22;4744;52.576;13.568;2022-10-15T01:43:25;12.90;1.00
9410;DHT22;4744;52.576;13.568;2022-10-15T01:45:56;12.90;1.00
9410;DHT22;4744;52.576;13.568;2022-10-15T01:48:25;12.90;1.00
9410;DHT22;4744;52.576;13.568;2022-10-15T01:50:55;12.90;1.00
9410;DHT22;4744;52.576;13.568;2022-10-15T01:53:25;12.90;1.00
9410;DHT22;4744;52.576;13.568;2022-10-15T01:55:54;13.00;1.00
9410;DHT22;4744;52.576;13.568;2022-10-15T01:58:23;13.00;1.00
9410;DHT22;4744;52.576;13.568;2022-10-15T02:00:51;13.00;1.00
9410;DHT22;4744;52.576;13.568;2022-10-15T02:03:20;13.00;1.00
9410;DHT22;4744;52.576;13.568;2022-10-15T02:05:50;13.00;1.00
9410;DHT22;4744;52.576;13.568;2022-10-15T02:08:22;13.10;1.00
9410;DHT22;4744;52.576;13.568;2022-10-15T02:10:59;13.10;1.00
9410;DHT22;4744;52.576;13.568;2022-10-15T02:13:32;13.10;1.00
9410;DHT22;4744;52.576;13.568;2022-10-15T02:16:07;13.10;1.00
9410;DHT22;4744;52.576;13.568;2022-10-15T02:18:40;13.10;1.00
9410;DHT22;4744;52.576;13.568;2022-10-15T02:21:15;13.10;1.00
9410;DHT22;4744;52.576;13.568;2022-10-15T02:23:46;13.10;1.00
9410;DHT22;4744;52.576;13.568;2022-10-15T02:26:17;13.10;1.00
9410;DHT22;4744;52.576;13.568;2022-10-15T02:28:52;13.10;1.00
9410;DHT22;4744;52.576;13.568;2022-10-15T02:31:22;13.20;1.00
9410;DHT22;4744;52.576;13.568;2022-10-15T02:33:51;13.20;1.00
9410;DHT22;4744;52.576;13.568;2022-10-15T02:36:21;13.20;1.00
9410;DHT22;4744;52.576;13.568;2022-10-15T02:38:48;13.10;1.00
9410;DHT22;4744;52.576;13.568;2022-10-15T02:41:17;13.10;1.00
9410;DHT22;4744;52.576;13.568;2022-10-15T02:43:44;13.00;1.00
9410;DHT22;4744;52.576;13.568;2022-10-15T02:46:13;13.00;1.00
9410;DHT22;4744;52.576;13.568;2022-10-15T02:48:41;13.00;1.00
9410;DHT22;4744;52.576;13.568;2022-10-15T02:51:09;13.00;1.00
9410;DHT22;4744;52.576;13.568;2022-10-15T02:53:36;13.00;1.00
9410;DHT22;4744;52.576;13.568;2022-10-15T02:56:03;13.00;1.00
9410;DHT22;4744;52.576;13.568;2022-10-15T02:58:30;13.00;1.00
9410;DHT22;4744;52.576;13.568;2022-10-15T03:00:57;13.10;1.00
9410;DHT22;4744;52.576;13.568;2022-10-15T03:03:24;13.10;1.00
9410;DHT22;4744;52.576;13.568;2022-10-15T03:05:50;13.10;1.00
9410;DHT22;4744;52.576;13.568;2022-10-15T03:08:18;13.10;1.00
9410;DHT22;4744;52.576;13.568;2022-10-15T03:10:45;13.10;1.00
9410;DHT22;4744;52.576;13.568;2022-10-15T03:13:12;13.20;1.00
9410;DHT22;4744;52.576;13.568;2022-10-15T03:15:39;13.10;1.00
9410;DHT22;4744;52.576;13.568;2022-10-15T03:18:06;13.10;1.00
9410;DHT22;4744;52.576;13.568;2022-10-15T03:20:33;13.20;1.00
9410;DHT22;4744;52.576;13.568;2022-10-15T03:23:00;13.10;1.00
9410;DHT22;4744;52.576;13.568;2022-10-15T03:25:28;13.10;1.00
9410;DHT22;4744;52.576;13.568;2022-10-15T03:27:55;13.10;1.00
9410;DHT22;4744;52.576;13.568;2022-10-15T03:30:22;13.10;1.00
9410;DHT22;4744;52.576;13.568;2022-10-15T03:32:49;13.10;1.00
9410;DHT22;4744;52.576;13.568;2022-10-15T03:35:16;13.10;1.00
9410;DHT22;4744;52.576;13.568;2022-10-15T03:37:43;13.10;1.00
9410;DHT22;4744;52.576;13.568;2022-10-15T03:40:10;13.20;1.00
9410;DHT22;4744;52.576;13.568;2022-10-15T03:42:38;13.20;1.00
9410;DHT22;4744;52.576;13.568;2022-10-15T03:45:06;13.20;1.00
9410;DHT22;4744;52.576;13.568;2022-10-15T03:47:33;13.20;1.00
9410;DHT22;4744;52.576;13.568;2022-10-15T03:49:59;13.20;1.00
9410;DHT22;4744;52.576;13.568;2022-10-15T03:52:26;13.10;1.00
9410;DHT22;4744;52.576;13.568;2022-10-15T03:54:53;13.10;1.00
9410;DHT22;4744;52.576;13.568;2022-10-15T03:57:20;13.00;1.00
9410;DHT22;4744;52.576;13.568;2022-10-15T03:59:48;13.00;1.00
9410;DHT22;4744;52.576;13.568;2022-10-15T04:02:15;13.00;1.00
9410;DHT22;4744;52.576;13.568;2022-10-15T04:04:41;13.00;1.00
9410;DHT22;4744;52.576;13.568;2022-10-15T04:07:08;13.00;1.00
9410;DHT22;4744;52.576;13.568;2022-10-15T04:09:35;13.10;1.00
9410;DHT22;4744;52.576;13.568;2022-10-15T04:12:02;13.10;1.00
9410;DHT22;4744;52.576;13.568;2022-10-15T04:14:29;13.10;1.00
9410;DHT22;4744;52.576;13.568;2022-10-15T04:16:57;13.10;1.00
9410;DHT22;4744;52.576;13.568;2022-10-15T04:19:24;13.00;1.00
9410;DHT22;4744;52.576;13.568;2022-10-15T04:21:50;13.00;1.00
9410;DHT22;4744;52.576;13.568;2022-10-15T04:24:17;13.00;1.00
9410;DHT22;4744;52.576;13.568;2022-10-15T04:26:44;13.10;1.00
9410;DHT22;4744;52.576;13.568;2022-10-15T04:29:11;13.10;1.00
9410;DHT22;4744;52.576;13.568;2022-10-15T04:31:37;13.10;1.00
9410;DHT22;4744;52.576;13.568;2022-10-15T04:34:06;13.10;1.00
9410;DHT22;4744;52.576;13.568;2022-10-15T04:36:33;13.20;1.00
9410;DHT22;4744;52.576;13.568;2022-10-15T04:39:00;13.10;1.00
9410;DHT22;4744;52.576;13.568;2022-10-15T04:41:27;13.20;1.00
9410;DHT22;4744;52.576;13.568;2022-10-15T04:43:55;13.10;1.00
9410;DHT22;4744;52.576;13.568;2022-10-15T04:46:22;13.10;1.00
9410;DHT22;4744;52.576;13.568;2022-10-15T04:48:49;13.10;1.00
9410;DHT22;4744;52.576;13.568;2022-10-15T04:51:19;13.10;1.00
9410;DHT22;4744;52.576;13.568;2022-10-15T04:53:46;13.10;1.00
9410;DHT22;4744;52.576;13.568;2022-10-15T04:56:14;13.10;1.00
9410;DHT22;4744;52.576;13.568;2022-10-15T04:58:43;13.10;1.00
9410;DHT22;4744;52.576;13.568;2022-10-15T05:01:12;13.10;1.00
9410;DHT22;4744;52.576;13.568;2022-10-15T05:03:40;13.10;1.00
9410;DHT22;4744;52.576;13.568;2022-10-15T05:06:09;13.10;1.00
9410;DHT22;4744;52.576;13.568;2022-10-15T05:08:38;13.10;1.00
9410;DHT22;4744;52.576;13.568;2022-10-15T05:11:08;13.10;1.00
9410;DHT22;4744;52.576;13.568;2022-10-15T05:13:35;13.20;1.00
9410;DHT22;4744;52.576;13.568;2022-10-15T05:16:09;13.20;1.00
9410;DHT22;4744;52.576;13.568;2022-10-15T05:18:36;13.20;1.00
9410;DHT22;4744;52.576;13.568;2022-10-15T05:21:04;13.20;1.00
9410;DHT22;4744;52.576;13.568;2022-10-15T05:23:31;13.10;1.00
9410;DHT22;4744;52.576;13.568;2022-10-15T05:26:00;13.20;1.00
9410;DHT22;4744;52.576;13.568;2022-10-15T05:28:28;13.20;1.00
9410;DHT22;4744;52.576;13.568;2022-10-15T05:30:55;13.20;1.00
9410;DHT22;4744;52.576;13.568;2022-10-15T05:33:21;13.20;1.00
9410;DHT22;4744;52.576;13.568;2022-10-15T05:35:48;13.20;1.00
9410;DHT22;4744;52.576;13.568;2022-10-15T05:38:15;13.20;1.00
9410;DHT22;4744;52.576;13.568;2022-10-15T05:40:46;13.20;1.00
9410;DHT22;4744;52.576;13.568;2022-10-15T05:43:15;13.20;1.00
9410;DHT22;4744;52.576;13.568;2022-10-15T05:45:41;13.20;1.00
9410;DHT22;4744;52.576;13.568;2022-10-15T05:48:08;13.20;1.00
9410;DHT22;4744;52.576;13.568;2022-10-15T05:50:35;13.20;1.00
9410;DHT22;4744;52.576;13.568;2022-10-15T05:53:02;13.20;1.00
9410;DHT22;4744;52.576;13.568;2022-10-15T05:55:29;13.20;1.00
9410;DHT22;4744;52.576;13.568;2022-10-15T05:58:00;13.20;1.00
9410;DHT22;4744;52.576;13.568;2022-10-15T06:00:28;13.20;1.00
9410;DHT22;4744;52.576;13.568;2022-10-15T06:02:55;13.20;1.00
9410;DHT22;4744;52.576;13.568;2022-10-15T06:05:22;13.30;1.00
9410;DHT22;4744;52.576;13.568;2022-10-15T06:07:49;13.30;1.00
9410;DHT22;4744;52.576;13.568;2022-10-15T06:10:16;13.30;1.00
9410;DHT22;4744;52.576;13.568;2022-10-15T06:12:48;13.30;1.00
9410;DHT22;4744;52.576;13.568;2022-10-15T06:15:15;13.30;1.00
9410;DHT22;4744;52.576;13.568;2022-10-15T06:17:43;13.30;1.00
9410;DHT22;4744;52.576;13.568;2022-10-15T06:20:10;13.30;1.00
9410;DHT22;4744;52.576;13.568;2022-10-15T06:22:37;13.30;1.00
9410;DHT22;4744;52.576;13.568;2022-10-15T06:25:05;13.30;1.00
9410;DHT22;4744;52.576;13.568;2022-10-15T06:27:32;13.30;1.00
9410;DHT22;4744;52.576;13.568;2022-10-15T06:29:59;13.30;1.00
9410;DHT22;4744;52.576;13.568;2022-10-15T06:32:25;13.30;1.00
9410;DHT22;4744;52.576;13.568;2022-10-15T06:34:54;13.30;1.00
9410;DHT22;4744;52.576;13.568;2022-10-15T06:37:20;13.40;1.00
9410;DHT22;4744;52.576;13.568;2022-10-15T06:39:47;13.40;1.00
9410;DHT22;4744;52.576;13.568;2022-10-15T06:42:14;13.40;1.00
9410;DHT22;4744;52.576;13.568;2022-10-15T06:44:41;13.40;1.00
9410;DHT22;4744;52.576;13.568;2022-10-15T06:47:08;13.40;1.00
9410;DHT22;4744;52.576;13.568;2022-10-15T06:49:34;13.50;1.00
9410;DHT22;4744;52.576;13.568;2022-10-15T06:52:03;13.50;1.00
9410;DHT22;4744;52.576;13.568;2022-10-15T06:54:29;13.60;1.00
9410;DHT22;4744;52.576;13.568;2022-10-15T06:56:56;13.60;1.00
9410;DHT22;4744;52.576;13.568;2022-10-15T06:59:23;13.60;1.00
9410;DHT22;4744;52.576;13.568;2022-10-15T07:01:49;13.60;1.00
9410;DHT22;4744;52.576;13.568;2022-10-15T07:04:16;13.70;1.00
9410;DHT22;4744;52.576;13.568;2022-10-15T07:06:44;13.70;1.00
9410;DHT22;4744;52.576;13.568;2022-10-15T07:09:12;13.70;1.00
9410;DHT22;4744;52.576;13.568;2022-10-15T07:11:39;13.70;1.00
9410;DHT22;4744;52.576;13.568;2022-10-15T07:14:05;13.80;1.00
9410;DHT22;4744;52.576;13.568;2022-10-15T07:16:32;13.80;1.00
9410;DHT22;4744;52.576;13.568;2022-10-15T07:18:59;13.80;1.00
9410;DHT22;4744;52.576;13.568;2022-10-15T07:21:26;13.80;1.00
9410;DHT22;4744;52.576;13.568;2022-10-15T07:23:52;13.90;1.00
9410;DHT22;4744;52.576;13.568;2022-10-15T07:26:21;13.90;1.00
9410;DHT22;4744;52.576;13.568;2022-10-15T07:28:47;14.00;1.00
9410;DHT22;4744;52.576;13.568;2022-10-15T07:31:14;14.00;1.00
9410;DHT22;4744;52.576;13.568;2022-10-15T07:33:41;14.10;1.00
9410;DHT22;4744;52.576;13.568;2022-10-15T07:36:09;14.10;1.00
9410;DHT22;4744;52.576;13.568;2022-10-15T07:38:37;14.10;1.00
9410;DHT22;4744;52.576;13.568;2022-10-15T07:41:06;14.10;1.00
9410;DHT22;4744;52.576;13.568;2022-10-15T07:43:35;14.10;1.00
9410;DHT22;4744;52.576;13.568;2022-10-15T07:46:03;14.10;1.00
9410;DHT22;4744;52.576;13.568;2022-10-15T07:48:30;14.20;1.00
9410;DHT22;4744;52.576;13.568;2022-10-15T07:50:58;14.20;1.00
9410;DHT22;4744;52.576;13.568;2022-10-15T07:53:26;14.30;1.00
9410;DHT22;4744;52.576;13.568;2022-10-15T07:55:53;14.40;1.00
9410;DHT22;4744;52.576;13.568;2022-10-15T07:58:19;14.60;1.00
9410;DHT22;4744;52.576;13.568;2022-10-15T08:00:47;14.70;1.00
9410;DHT22;4744;52.576;13.568;2022-10-15T08:03:14;14.90;1.00
9410;DHT22;4744;52.576;13.568;2022-10-15T08:05:41;15.00;1.00
9410;DHT22;4744;52.576;13.568;2022-10-15T08:08:08;15.20;1.00
9410;DHT22;4744;52.576;13.568;2022-10-15T08:10:35;15.40;1.00
9410;DHT22;4744;52.576;13.568;2022-10-15T08:13:02;15.60;1.00
9410;DHT22;4744;52.576;13.568;2022-10-15T08:15:28;15.80;1.00
9410;DHT22;4744;52.576;13.568;2022-10-15T08:17:58;15.90;1.00
9410;DHT22;4744;52.576;13.568;2022-10-15T08:20:25;16.00;1.00
9410;DHT22;4744;52.576;13.568;2022-10-15T08:22:51;16.10;1.00
9410;DHT22;4744;52.576;13.568;2022-10-15T08:25:18;16.20;1.00
9410;DHT22;4744;52.576;13.568;2022-10-15T08:27:45;16.50;1.00
9410;DHT22;4744;52.576;13.568;2022-10-15T08:30:12;16.90;1.00
9410;DHT22;4744;52.576;13.568;2022-10-15T08:32:38;17.20;1.00
9410;DHT22;4744;52.576;13.568;2022-10-15T08:35:07;17.40;1.00
9410;DHT22;4744;52.576;13.568;2022-10-15T08:37:34;17.40;1.00
9410;DHT22;4744;52.576;13.568;2022-10-15T08:40:01;17.50;1.00
9410;DHT22;4744;52.576;13.568;2022-10-15T08:42:30;17.70;1.00
9410;DHT22;4744;52.576;13.568;2022-10-15T08:45:01;17.80;1.00
9410;DHT22;4744;52.576;13.568;2022-10-15T08:47:31;17.90;1.00
9410;DHT22;4744;52.576;13.568;2022-10-15T08:50:02;17.90;1.00
9410;DHT22;4744;52.576;13.568;2022-10-15T08:52:41;17.90;1.00
9410;DHT22;4744;52.576;13.568;2022-10-15T08:55:10;17.90;1.00
9410;DHT22;4744;52.576;13.568;2022-10-15T08:57:41;18.10;1.00
9410;DHT22;4744;52.576;13.568;2022-10-15T09:00:13;18.10;1.00
9410;DHT22;4744;52.576;13.568;2022-10-15T09:02:46;18.10;1.00
9410;DHT22;4744;52.576;13.568;2022-10-15T09:05:29;18.30;1.00
9410;DHT22;4744;52.576;13.568;2022-10-15T09:08:02;18.90;1.00
9410;DHT22;4744;52.576;13.568;2022-10-15T09:10:38;20.00;1.00
9410;DHT22;4744;52.576;13.568;2022-10-15T09:13:09;20.40;1.00
9410;DHT22;4744;52.576;13.568;2022-10-15T09:15:43;20.50;1.00
9410;DHT22;4744;52.576;13.568;2022-10-15T09:18:17;20.20;1.00
9410;DHT22;4744;52.576;13.568;2022-10-15T09:20:45;19.60;1.00
9410;DHT22;4744;52.576;13.568;2022-10-15T09:23:16;19.10;1.00
9410;DHT22;4744;52.576;13.568;2022-10-15T09:25:48;18.60;1.00
9410;DHT22;4744;52.576;13.568;2022-10-15T09:28:19;18.20;1.00
9410;DHT22;4744;52.576;13.568;2022-10-15T09:30:51;17.80;1.00
9410;DHT22;4744;52.576;13.568;2022-10-15T09:33:32;17.50;1.00
9410;DHT22;4744;52.576;13.568;2022-10-15T09:36:08;17.30;1.00
9410;DHT22;4744;52.576;13.568;2022-10-15T09:38:45;17.00;1.00
9410;DHT22;4744;52.576;13.568;2022-10-15T09:41:20;16.90;1.00
9410;DHT22;4744;52.576;13.568;2022-10-15T09:43:51;16.80;1.00
9410;DHT22;4744;52.576;13.568;2022-10-15T09:46:19;16.80;1.00
9410;DHT22;4744;52.576;13.568;2022-10-15T09:48:47;17.00;1.00
9410;DHT22;4744;52.576;13.568;2022-10-15T09:51:22;17.10;1.00
9410;DHT22;4744;52.576;13.568;2022-10-15T09:53:59;17.10;1.00
9410;DHT22;4744;52.576;13.568;2022-10-15T09:56:32;17.20;1.00
9410;DHT22;4744;52.576;13.568;2022-10-15T09:59:01;17.30;1.00
9410;DHT22;4744;52.576;13.568;2022-10-15T10:01:30;17.30;1.00
9410;DHT22;4744;52.576;13.568;2022-10-15T10:04:11;17.40;1.00
9410;DHT22;4744;52.576;13.568;2022-10-15T10:06:46;17.50;1.00
9410;DHT22;4744;52.576;13.568;2022-10-15T10:09:18;17.60;1.00
9410;DHT22;4744;52.576;13.568;2022-10-15T10:11:48;17.60;1.00
9410;DHT22;4744;52.576;13.568;2022-10-15T10:14:22;17.80;1.00
9410;DHT22;4744;52.576;13.568;2022-10-15T10:17:05;18.00;1.00
9410;DHT22;4744;52.576;13.568;2022-10-15T10:19:32;18.20;1.00
9410;DHT22;4744;52.576;13.568;2022-10-15T10:22:12;18.20;1.00
9410;DHT22;4744;52.576;13.568;2022-10-15T10:24:40;18.20;1.00
9410;DHT22;4744;52.576;13.568;2022-10-15T10:27:17;18.00;1.00
9410;DHT22;4744;52.576;13.568;2022-10-15T10:29:51;17.90;1.00
9410;DHT22;4744;52.576;13.568;2022-10-15T10:32:21;17.90;1.00
9410;DHT22;4744;52.576;13.568;2022-10-15T10:34:49;17.90;1.00
9410;DHT22;4744;52.576;13.568;2022-10-15T10:37:16;17.90;1.00
9410;DHT22;4744;52.576;13.568;2022-10-15T10:39:44;17.90;1.00
9410;DHT22;4744;52.576;13.568;2022-10-15T10:42:30;18.00;1.00
9410;DHT22;4744;52.576;13.568;2022-10-15T10:45:15;18.00;1.00
9410;DHT22;4744;52.576;13.568;2022-10-15T10:47:42;18.00;1.00
9410;DHT22;4744;52.576;13.568;2022-10-15T10:50:29;18.10;1.00
9410;DHT22;4744;52.576;13.568;2022-10-15T10:52:56;18.10;1.00
9410;DHT22;4744;52.576;13.568;2022-10-15T10:55:30;18.10;1.00
9410;DHT22;4744;52.576;13.568;2022-10-15T10:57:59;18.20;1.00
9410;DHT22;4744;52.576;13.568;2022-10-15T11:00:34;18.10;1.00
9410;DHT22;4744;52.576;13.568;2022-10-15T11:03:02;18.10;1.00
9410;DHT22;4744;52.576;13.568;2022-10-15T11:05:30;18.10;1.00
9410;DHT22;4744;52.576;13.568;2022-10-15T11:08:05;18.10;1.00
9410;DHT22;4744;52.576;13.568;2022-10-15T11:10:41;18.10;1.00
9410;DHT22;4744;52.576;13.568;2022-10-15T11:13:31;18.00;1.00
9410;DHT22;4744;52.576;13.568;2022-10-15T11:16:03;17.90;1.00
9410;DHT22;4744;52.576;13.568;2022-10-15T11:18:52;17.90;1.00
9410;DHT22;4744;52.576;13.568;2022-10-15T11:21:26;17.90;1.00
9410;DHT22;4744;52.576;13.568;2022-10-15T11:24:16;17.80;1.00
9410;DHT22;4744;52.576;13.568;2022-10-15T11:26:55;17.80;1.00
9410;DHT22;4744;52.576;13.568;2022-10-15T11:29:32;17.80;1.00
9410;DHT22;4744;52.576;13.568;2022-10-15T11:32:10;17.70;1.00
9410;DHT22;4744;52.576;13.568;2022-10-15T11:34:47;17.70;1.00
9410;DHT22;4744;52.576;13.568;2022-10-15T11:37:31;17.70;1.00
9410;DHT22;4744;52.576;13.568;2022-10-15T11:40:12;17.70;1.00
9410;DHT22;4744;52.576;13.568;2022-10-15T11:42:49;17.80;1.00
9410;DHT22;4744;52.576;13.568;2022-10-15T11:45:42;17.90;1.00
9410;DHT22;4744;52.576;13.568;2022-10-15T11:48:19;18.10;1.00
9410;DHT22;4744;52.576;13.568;2022-10-15T11:50:55;18.30;1.00
9410;DHT22;4744;52.576;13.568;2022-10-15T11:53:51;18.40;1.00
9410;DHT22;4744;52.576;13.568;2022-10-15T11:56:21;18.40;1.00
9410;DHT22;4744;52.576;13.568;2022-10-15T11:58:54;18.60;1.00
9410;DHT22;4744;52.576;13.568;2022-10-15T12:01:28;18.60;1.00
9410;DHT22;4744;52.576;13.568;2022-10-15T12:03:59;18.70;1.00
9410;DHT22;4744;52.576;13.568;2022-10-15T12:06:33;18.90;1.00
9410;DHT22;4744;52.576;13.568;2022-10-15T12:09:02;19.00;1.00
9410;DHT22;4744;52.576;13.568;2022-10-15T12:11:40;19.00;1.00
9410;DHT22;4744;52.576;13.568;2022-10-15T12:14:17;18.90;1.00
9410;DHT22;4744;52.576;13.568;2022-10-15T12:16:54;18.80;1.00
9410;DHT22;4744;52.576;13.568;2022-10-15T12:19:27;18.60;1.00
9410;DHT22;4744;52.576;13.568;2022-10-15T12:22:05;18.50;1.00
9410;DHT22;4744;52.576;13.568;2022-10-15T12:24:50;18.40;1.00
9410;DHT22;4744;52.576;13.568;2022-10-15T12:27:23;18.30;1.00
9410;DHT22;4744;52.576;13.568;2022-10-15T12:30:11;18.20;1.00
9410;DHT22;4744;52.576;13.568;2022-10-15T12:32:40;18.20;1.00
9410;DHT22;4744;52.576;13.568;2022-10-15T12:35:21;18.30;1.00
9410;DHT22;4744;52.576;13.568;2022-10-15T12:37:49;18.40;1.00
9410;DHT22;4744;52.576;13.568;2022-10-15T12:40:25;18.40;1.00
9410;DHT22;4744;52.576;13.568;2022-10-15T12:42:55;18.40;1.00
9410;DHT22;4744;52.576;13.568;2022-10-15T12:45:27;18.50;1.00
9410;DHT22;4744;52.576;13.568;2022-10-15T12:48:17;18.50;1.00
9410;DHT22;4744;52.576;13.568;2022-10-15T12:50:44;18.50;1.00
9410;DHT22;4744;52.576;13.568;2022-10-15T12:53:29;18.50;1.00
9410;DHT22;4744;52.576;13.568;2022-10-15T12:56:20;18.40;1.00
9410;DHT22;4744;52.576;13.568;2022-10-15T12:58:48;18.40;1.00
9410;DHT22;4744;52.576;13.568;2022-10-15T13:01:49;18.40;1.00
9410;DHT22;4744;52.576;13.568;2022-10-15T13:04:17;18.40;1.00
9410;DHT22;4744;52.576;13.568;2022-10-15T13:06:45;18.30;1.00
9410;DHT22;4744;52.576;13.568;2022-10-15T13:09:30;18.30;1.00
9410;DHT22;4744;52.576;13.568;2022-10-15T13:11:58;18.30;1.00
9410;DHT22;4744;52.576;13.568;2022-10-15T13:14:29;18.20;1.00
9410;DHT22;4744;52.576;13.568;2022-10-15T13:17:00;18.20;1.00
9410;DHT22;4744;52.576;13.568;2022-10-15T13:19:29;18.20;1.00
9410;DHT22;4744;52.576;13.568;2022-10-15T13:22:00;18.20;1.00
9410;DHT22;4744;52.576;13.568;2022-10-15T13:24:29;18.10;1.00
9410;DHT22;4744;52.576;13.568;2022-10-15T13:26:59;18.20;1.00
9410;DHT22;4744;52.576;13.568;2022-10-15T13:29:27;18.20;1.00
9410;DHT22;4744;52.576;13.568;2022-10-15T13:31:55;18.10;1.00
9410;DHT22;4744;52.576;13.568;2022-10-15T13:34:26;18.10;1.00
9410;DHT22;4744;52.576;13.568;2022-10-15T13:36:56;18.10;1.00
9410;DHT22;4744;52.576;13.568;2022-10-15T13:39:28;18.10;1.00
9410;DHT22;4744;52.576;13.568;2022-10-15T13:42:06;18.10;1.00
9410;DHT22;4744;52.576;13.568;2022-10-15T13:44:33;18.10;1.00
9410;DHT22;4744;52.576;13.568;2022-10-15T13:47:01;18.10;1.00
9410;DHT22;4744;52.576;13.568;2022-10-15T13:49:29;18.20;1.00
9410;DHT22;4744;52.576;13.568;2022-10-15T13:51:56;18.20;1.00
9410;DHT22;4744;52.576;13.568;2022-10-15T13:54:26;18.20;1.00
9410;DHT22;4744;52.576;13.568;2022-10-15T13:56:55;18.20;1.00
9410;DHT22;4744;52.576;13.568;2022-10-15T13:59:24;18.20;1.00
9410;DHT22;4744;52.576;13.568;2022-10-15T14:01:53;18.20;1.00
9410;DHT22;4744;52.576;13.568;2022-10-15T14:04:26;18.20;1.00
9410;DHT22;4744;52.576;13.568;2022-10-15T14:06:55;18.20;1.00
9410;DHT22;4744;52.576;13.568;2022-10-15T14:09:28;18.10;1.00
9410;DHT22;4744;52.576;13.568;2022-10-15T14:11:56;18.00;1.00
9410;DHT22;4744;52.576;13.568;2022-10-15T14:14:31;18.00;1.00
9410;DHT22;4744;52.576;13.568;2022-10-15T14:16:59;17.90;1.00
9410;DHT22;4744;52.576;13.568;2022-10-15T14:19:28;17.90;1.00
9410;DHT22;4744;52.576;13.568;2022-10-15T14:21:58;17.90;1.00
9410;DHT22;4744;52.576;13.568;2022-10-15T14:24:30;17.90;1.00
9410;DHT22;4744;52.576;13.568;2022-10-15T14:27:03;17.90;1.00
9410;DHT22;4744;52.576;13.568;2022-10-15T14:29:37;18.00;1.00
9410;DHT22;4744;52.576;13.568;2022-10-15T14:32:18;18.00;1.00
9410;DHT22;4744;52.576;13.568;2022-10-15T14:34:46;18.10;1.00
9410;DHT22;4744;52.576;13.568;2022-10-15T14:37:39;18.10;1.00
9410;DHT22;4744;52.576;13.568;2022-10-15T14:40:16;18.00;1.00
9410;DHT22;4744;52.576;13.568;2022-10-15T14:42:44;18.00;1.00
9410;DHT22;4744;52.576;13.568;2022-10-15T14:45:23;18.00;1.00
9410;DHT22;4744;52.576;13.568;2022-10-15T14:47:52;17.90;1.00
9410;DHT22;4744;52.576;13.568;2022-10-15T14:50:23;17.90;1.00
9410;DHT22;4744;52.576;13.568;2022-10-15T14:52:53;17.80;1.00
9410;DHT22;4744;52.576;13.568;2022-10-15T14:55:29;17.70;1.00
9410;DHT22;4744;52.576;13.568;2022-10-15T14:58:07;17.70;1.00
9410;DHT22;4744;52.576;13.568;2022-10-15T15:00:39;17.70;1.00
9410;DHT22;4744;52.576;13.568;2022-10-15T15:03:14;17.70;1.00
9410;DHT22;4744;52.576;13.568;2022-10-15T15:05:44;17.60;1.00
9410;DHT22;4744;52.576;13.568;2022-10-15T15:08:13;17.60;1.00
9410;DHT22;4744;52.576;13.568;2022-10-15T15:10:41;17.60;1.00
9410;DHT22;4744;52.576;13.568;2022-10-15T15:13:10;17.60;1.00
9410;DHT22;4744;52.576;13.568;2022-10-15T15:15:39;17.70;1.00
9410;DHT22;4744;52.576;13.568;2022-10-15T15:18:08;17.70;1.00
9410;DHT22;4744;52.576;13.568;2022-10-15T15:20:35;17.70;1.00
9410;DHT22;4744;52.576;13.568;2022-10-15T15:23:02;17.60;1.00
9410;DHT22;4744;52.576;13.568;2022-10-15T15:25:33;17.50;1.00
9410;DHT22;4744;52.576;13.568;2022-10-15T15:28:01;17.40;1.00
9410;DHT22;4744;52.576;13.568;2022-10-15T15:30:30;17.40;1.00
9410;DHT22;4744;52.576;13.568;2022-10-15T15:32:58;17.30;1.00
9410;DHT22;4744;52.576;13.568;2022-10-15T15:35:31;17.20;1.00
9410;DHT22;4744;52.576;13.568;2022-10-15T15:38:00;17.20;1.00
9410;DHT22;4744;52.576;13.568;2022-10-15T15:40:27;17.20;1.00
9410;DHT22;4744;52.576;13.568;2022-10-15T15:42:55;17.10;1.00
9410;DHT22;4744;52.576;13.568;2022-10-15T15:45:24;17.10;1.00
9410;DHT22;4744;52.576;13.568;2022-10-15T15:47:51;17.10;1.00
9410;DHT22;4744;52.576;13.568;2022-10-15T15:50:20;17.10;1.00
9410;DHT22;4744;52.576;13.568;2022-10-15T15:52:47;17.10;1.00
9410;DHT22;4744;52.576;13.568;2022-10-15T15:55:14;17.10;1.00
9410;DHT22;4744;52.576;13.568;2022-10-15T15:57:40;17.10;1.00
9410;DHT22;4744;52.576;13.568;2022-10-15T16:00:10;17.10;1.00
9410;DHT22;4744;52.576;13.568;2022-10-15T16:02:37;17.10;1.00
9410;DHT22;4744;52.576;13.568;2022-10-15T16:05:05;17.10;1.00
9410;DHT22;4744;52.576;13.568;2022-10-15T16:07:32;17.00;1.00
9410;DHT22;4744;52.576;13.568;2022-10-15T16:09:59;17.00;1.00
9410;DHT22;4744;52.576;13.568;2022-10-15T16:12:26;16.90;1.00
9410;DHT22;4744;52.576;13.568;2022-10-15T16:14:53;16.80;1.00
9410;DHT22;4744;52.576;13.568;2022-10-15T16:17:21;16.80;1.00
9410;DHT22;4744;52.576;13.568;2022-10-15T16:19:48;16.80;1.00
9410;DHT22;4744;52.576;13.568;2022-10-15T16:22:15;16.70;1.00
9410;DHT22;4744;52.576;13.568;2022-10-15T16:24:42;16.60;1.00
9410;DHT22;4744;52.576;13.568;2022-10-15T16:27:09;16.60;1.00